sensor_id;sensor_type;location;lat;lon;timestamp;pressure;altitude;pressure_sealevel;temperature;humidity
42691;BME280;28306;55.744;37.578;2023-03-09T00:01:25;97739.06;;;25.90;18.93
42691;BME280;28306;55.744;37.578;2023-03-09T00:03:51;97743.72;;;25.89;18.99
42691;BME280;28306;55.744;37.578;2023-03-09T00:06:16;97750.75;;;25.90;18.94
42691;BME280;28306;55.744;37.578;2023-03-09T00:08:42;97736.34;;;25.90;19.21
42691;BME280;28306;55.744;37.578;2023-03-09T00:11:08;97749.97;;;25.90;18.92
42691;BME280;28306;55.744;37.578;2023-03-09T00:13:33;97743.72;;;25.89;19.23
42691;BME280;28306;55.744;37.578;2023-03-09T00:16:18;97749.97;;;25.90;18.82
42691;BME280;28306;55.744;37.578;2023-03-09T00:18:45;97748.34;;;25.89;18.84
42691;BME280;28306;55.744;37.578;2023-03-09T00:21:10;97751.06;;;25.89;19.16
42691;BME280;28306;55.744;37.578;2023-03-09T00:24:04;97749.16;;;25.89;19.26
42691;BME280;28306;55.744;37.578;2023-03-09T00:26:30;97747.22;;;25.90;18.84
42691;BME280;28306;55.744;37.578;2023-03-09T00:28:55;97750.75;;;25.90;18.80
42691;BME280;28306;55.744;37.578;2023-03-09T00:31:21;97748.84;;;25.91;19.20
42691;BME280;28306;55.744;37.578;2023-03-09T00:33:47;97751.56;;;25.91;18.95
42691;BME280;28306;55.744;37.578;2023-03-09T00:36:13;97753.78;;;25.89;19.02
42691;BME280;28306;55.744;37.578;2023-03-09T00:38:38;97760.06;;;25.89;18.94
42691;BME280;28306;55.744;37.578;2023-03-09T00:41:04;97753.47;;;25.90;18.90
42691;BME280;28306;55.744;37.578;2023-03-09T00:43:29;97752.69;;;25.90;18.95
42691;BME280;28306;55.744;37.578;2023-03-09T00:45:55;97752.69;;;25.90;19.17
42691;BME280;28306;55.744;37.578;2023-03-09T00:48:20;97760.84;;;25.90;19.20
42691;BME280;28306;55.744;37.578;2023-03-09T00:50:46;97751.88;;;25.89;18.94
42691;BME280;28306;55.744;37.578;2023-03-09T00:53:11;97754.63;;;25.89;19.13
42691;BME280;28306;55.744;37.578;2023-03-09T00:55:37;97755.72;;;25.88;18.89
42691;BME280;28306;55.744;37.578;2023-03-09T00:58:02;97768.25;;;25.89;19.26
42691;BME280;28306;55.744;37.578;2023-03-09T01:00:28;97764.69;;;25.89;18.96
42691;BME280;28306;55.744;37.578;2023-03-09T01:02:53;97761.97;;;25.89;19.00
42691;BME280;28306;55.744;37.578;2023-03-09T01:05:19;97761.97;;;25.89;18.89
42691;BME280;28306;55.744;37.578;2023-03-09T01:07:45;97761.16;;;25.88;18.99
42691;BME280;28306;55.744;37.578;2023-03-09T01:10:11;97758.44;;;25.88;18.96
42691;BME280;28306;55.744;37.578;2023-03-09T01:12:36;97769.81;;;25.90;19.20
42691;BME280;28306;55.744;37.578;2023-03-09T01:15:03;97762.47;;;25.91;19.16
42691;BME280;28306;55.744;37.578;2023-03-09T01:17:28;97768.72;;;25.92;19.06
42691;BME280;28306;55.744;37.578;2023-03-09T01:19:54;97767.91;;;25.91;18.94
42691;BME280;28306;55.744;37.578;2023-03-09T01:22:19;97759.75;;;25.91;19.13
42691;BME280;28306;55.744;37.578;2023-03-09T01:24:45;97766.00;;;25.92;19.13
42691;BME280;28306;55.744;37.578;2023-03-09T01:27:10;97769.50;;;25.92;18.95
42691;BME280;28306;55.744;37.578;2023-03-09T01:29:37;97762.94;;;25.93;18.81
42691;BME280;28306;55.744;37.578;2023-03-09T01:32:03;97762.94;;;25.93;19.12
42691;BME280;28306;55.744;37.578;2023-03-09T01:34:28;97758.59;;;25.92;19.15
42691;BME280;28306;55.744;37.578;2023-03-09T01:36:54;97767.59;;;25.93;19.06
42691;BME280;28306;55.744;37.578;2023-03-09T01:39:20;97772.22;;;25.92;18.96
42691;BME280;28306;55.744;37.578;2023-03-09T01:41:45;97769.50;;;25.92;18.98
42691;BME280;28306;55.744;37.578;2023-03-09T01:44:11;97773.06;;;25.93;18.92
42691;BME280;28306;55.744;37.578;2023-03-09T01:54:03;97773.06;;;25.93;19.11
42691;BME280;28306;55.744;37.578;2023-03-09T01:56:30;97774.63;;;25.94;19.06
42691;BME280;28306;55.744;37.578;2023-03-09T01:58:56;97770.31;;;25.93;19.18
42691;BME280;28306;55.744;37.578;2023-03-09T02:01:23;97772.72;;;25.94;19.06
42691;BME280;28306;55.744;37.578;2023-03-09T02:03:50;97776.56;;;25.93;18.81
42691;BME280;28306;55.744;37.578;2023-03-09T02:06:18;97776.25;;;25.95;18.99
42691;BME280;28306;55.744;37.578;2023-03-09T02:08:53;97773.53;;;25.95;19.01
42691;BME280;28306;55.744;37.578;2023-03-09T02:11:20;97779.78;;;25.95;19.01
42691;BME280;28306;55.744;37.578;2023-03-09T02:13:46;97777.03;;;25.95;18.85
42691;BME280;28306;55.744;37.578;2023-03-09T02:16:13;97789.88;;;25.95;18.96
42691;BME280;28306;55.744;37.578;2023-03-09T02:18:39;97789.09;;;25.94;18.79
42691;BME280;28306;55.744;37.578;2023-03-09T02:26:29;97798.06;;;25.95;18.89
42691;BME280;28306;55.744;37.578;2023-03-09T02:28:56;97795.31;;;25.95;18.89
42691;BME280;28306;55.744;37.578;2023-03-09T02:31:23;97790.97;;;25.94;18.79
42691;BME280;28306;55.744;37.578;2023-03-09T02:33:48;97806.53;;;25.93;19.07
42691;BME280;28306;55.744;37.578;2023-03-09T02:36:14;97798.06;;;25.95;18.91
42691;BME280;28306;55.744;37.578;2023-03-09T02:38:42;97804.28;;;25.95;19.00
42691;BME280;28306;55.744;37.578;2023-03-09T02:41:08;97807.00;;;25.95;18.98
42691;BME280;28306;55.744;37.578;2023-03-09T02:43:36;97807.00;;;25.95;18.81
42691;BME280;28306;55.744;37.578;2023-03-09T02:46:03;97808.63;;;25.96;19.05
42691;BME280;28306;55.744;37.578;2023-03-09T02:48:32;97810.56;;;25.96;18.85
42691;BME280;28306;55.744;37.578;2023-03-09T02:50:58;97812.16;;;25.97;19.08
42691;BME280;28306;55.744;37.578;2023-03-09T02:53:23;97826.91;;;25.96;18.95
42691;BME280;28306;55.744;37.578;2023-03-09T02:55:49;97823.03;;;25.97;18.73
42691;BME280;28306;55.744;37.578;2023-03-09T02:58:14;97821.47;;;25.96;18.71
42691;BME280;28306;55.744;37.578;2023-03-09T03:00:40;97825.78;;;25.97;18.81
42691;BME280;28306;55.744;37.578;2023-03-09T03:03:05;97836.66;;;25.97;18.91
42691;BME280;28306;55.744;37.578;2023-03-09T03:05:31;97833.94;;;25.97;19.09
42691;BME280;28306;55.744;37.578;2023-03-09T03:07:57;97833.94;;;25.97;18.84
42691;BME280;28306;55.744;37.578;2023-03-09T03:10:24;97826.63;;;25.97;19.04
42691;BME280;28306;55.744;37.578;2023-03-09T03:12:49;97833.16;;;25.96;18.84
42691;BME280;28306;55.744;37.578;2023-03-09T03:15:15;97817.13;;;25.95;18.96
42691;BME280;28306;55.744;37.578;2023-03-09T03:17:40;97831.53;;;25.95;18.95
42691;BME280;28306;55.744;37.578;2023-03-09T03:20:07;97830.75;;;25.95;19.09
42691;BME280;28306;55.744;37.578;2023-03-09T03:22:38;97823.69;;;25.94;18.99
42691;BME280;28306;55.744;37.578;2023-03-09T03:25:04;97829.94;;;25.94;18.82
42691;BME280;28306;55.744;37.578;2023-03-09T03:27:31;97837.81;;;25.96;18.81
42691;BME280;28306;55.744;37.578;2023-03-09T03:29:58;97837.81;;;25.96;18.80
42691;BME280;28306;55.744;37.578;2023-03-09T03:32:25;97832.38;;;25.96;18.95
42691;BME280;28306;55.744;37.578;2023-03-09T03:34:54;97835.88;;;25.96;18.79
42691;BME280;28306;55.744;37.578;2023-03-09T03:37:19;97838.59;;;25.96;18.85
42691;BME280;28306;55.744;37.578;2023-03-09T03:39:46;97833.16;;;25.96;18.78
42691;BME280;28306;55.744;37.578;2023-03-09T03:42:12;97832.88;;;25.98;18.64
42691;BME280;28306;55.744;37.578;2023-03-09T03:44:38;97844.06;;;25.96;18.89
42691;BME280;28306;55.744;37.578;2023-03-09T03:47:04;97843.78;;;25.98;18.77
42691;BME280;28306;55.744;37.578;2023-03-09T03:49:30;97838.59;;;25.96;19.06
42691;BME280;28306;55.744;37.578;2023-03-09T03:51:58;97841.34;;;25.96;18.73
42691;BME280;28306;55.744;37.578;2023-03-09T03:54:24;97841.03;;;25.98;18.74
42691;BME280;28306;55.744;37.578;2023-03-09T03:56:50;97845.69;;;25.97;18.77
42691;BME280;28306;55.744;37.578;2023-03-09T03:59:15;97852.22;;;25.96;18.78
42691;BME280;28306;55.744;37.578;2023-03-09T04:01:41;97854.16;;;25.96;18.67
42691;BME280;28306;55.744;37.578;2023-03-09T04:04:08;97848.72;;;25.96;18.86
42691;BME280;28306;55.744;37.578;2023-03-09T04:06:37;97850.63;;;25.95;18.78
42691;BME280;28306;55.744;37.578;2023-03-09T04:09:04;97856.06;;;25.95;18.87
42691;BME280;28306;55.744;37.578;2023-03-09T04:11:31;97857.69;;;25.96;18.82
42691;BME280;28306;55.744;37.578;2023-03-09T04:13:57;97858.78;;;25.95;19.00
42691;BME280;28306;55.744;37.578;2023-03-09T04:16:22;97857.69;;;25.96;18.84
42691;BME280;28306;55.744;37.578;2023-03-09T04:18:48;97858.47;;;25.97;18.80
42691;BME280;28306;55.744;37.578;2023-03-09T04:21:16;97859.59;;;25.96;18.75
42691;BME280;28306;55.744;37.578;2023-03-09T04:23:43;97866.66;;;25.97;18.67
42691;BME280;28306;55.744;37.578;2023-03-09T04:26:09;97860.41;;;25.96;18.88
42691;BME280;28306;55.744;37.578;2023-03-09T04:28:43;97869.69;;;25.95;18.74
42691;BME280;28306;55.744;37.578;2023-03-09T04:31:14;97867.50;;;25.97;18.75
42691;BME280;28306;55.744;37.578;2023-03-09T04:33:40;97868.28;;;25.98;18.77
42691;BME280;28306;55.744;37.578;2023-03-09T04:36:13;97874.53;;;25.98;18.79
42691;BME280;28306;55.744;37.578;2023-03-09T04:38:39;97871.81;;;25.98;18.88
42691;BME280;28306;55.744;37.578;2023-03-09T04:41:06;97875.34;;;25.99;18.71
42691;BME280;28306;55.744;37.578;2023-03-09T04:43:32;97886.25;;;25.99;18.84
42691;BME280;28306;55.744;37.578;2023-03-09T04:45:58;97893.28;;;26.00;18.73
42691;BME280;28306;55.744;37.578;2023-03-09T04:48:24;97896.84;;;26.00;18.97
42691;BME280;28306;55.744;37.578;2023-03-09T04:50:50;97903.41;;;25.99;18.64
42691;BME280;28306;55.744;37.578;2023-03-09T04:53:16;97905.03;;;26.00;18.75
42691;BME280;28306;55.744;37.578;2023-03-09T04:55:41;97921.38;;;26.00;18.83
42691;BME280;28306;55.744;37.578;2023-03-09T04:58:10;97915.91;;;26.00;18.59
42691;BME280;28306;55.744;37.578;2023-03-09T05:00:36;97919.44;;;26.01;18.94
42691;BME280;28306;55.744;37.578;2023-03-09T05:03:03;97920.53;;;26.00;18.66
42691;BME280;28306;55.744;37.578;2023-03-09T05:05:29;97924.09;;;26.00;18.86
42691;BME280;28306;55.744;37.578;2023-03-09T05:07:56;97917.03;;;25.99;18.71
42691;BME280;28306;55.744;37.578;2023-03-09T05:10:23;97926.81;;;26.00;18.70
42691;BME280;28306;55.744;37.578;2023-03-09T05:12:51;97925.69;;;26.01;18.57
42691;BME280;28306;55.744;37.578;2023-03-09T05:15:21;97928.41;;;26.01;18.72
42691;BME280;28306;55.744;37.578;2023-03-09T05:17:46;97932.75;;;26.02;18.61
42691;BME280;28306;55.744;37.578;2023-03-09T05:20:12;97931.13;;;26.01;18.85
42691;BME280;28306;55.744;37.578;2023-03-09T05:22:46;97930.03;;;26.02;18.90
42691;BME280;28306;55.744;37.578;2023-03-09T05:25:13;97930.50;;;26.04;18.78
42691;BME280;28306;55.744;37.578;2023-03-09T05:27:39;97932.13;;;26.05;18.85
42691;BME280;28306;55.744;37.578;2023-03-09T05:30:06;97937.56;;;26.05;18.58
42691;BME280;28306;55.744;37.578;2023-03-09T05:32:33;97926.97;;;26.04;18.64
42691;BME280;28306;55.744;37.578;2023-03-09T05:34:59;97926.66;;;26.05;18.56
42691;BME280;28306;55.744;37.578;2023-03-09T05:37:25;97930.19;;;26.06;18.69
42691;BME280;28306;55.744;37.578;2023-03-09T05:39:51;97924.75;;;26.06;18.88
42691;BME280;28306;55.744;37.578;2023-03-09T05:42:17;97924.44;;;26.07;18.57
42691;BME280;28306;55.744;37.578;2023-03-09T05:44:42;97928.78;;;26.08;18.64
42691;BME280;28306;55.744;37.578;2023-03-09T05:47:08;97929.56;;;26.09;18.63
42691;BME280;28306;55.744;37.578;2023-03-09T05:49:34;97928.44;;;26.10;18.72
42691;BME280;28306;55.744;37.578;2023-03-09T05:51:59;97940.16;;;26.11;18.53
42691;BME280;28306;55.744;37.578;2023-03-09T05:54:25;97936.31;;;26.12;18.56
42691;BME280;28306;55.744;37.578;2023-03-09T05:56:54;97933.59;;;26.12;18.51
42691;BME280;28306;55.744;37.578;2023-03-09T05:59:20;97935.19;;;26.13;18.57
42691;BME280;28306;55.744;37.578;2023-03-09T06:01:45;97941.13;;;26.15;18.68
42691;BME280;28306;55.744;37.578;2023-03-09T06:04:16;97952.03;;;26.15;18.48
42691;BME280;28306;55.744;37.578;2023-03-09T06:06:47;97959.91;;;26.16;18.66
42691;BME280;28306;55.744;37.578;2023-03-09T06:09:13;97953.31;;;26.17;18.38
42691;BME280;28306;55.744;37.578;2023-03-09T06:11:38;97954.94;;;26.18;18.60
42691;BME280;28306;55.744;37.578;2023-03-09T06:14:05;97959.59;;;26.18;18.53
42691;BME280;28306;55.744;37.578;2023-03-09T06:16:35;97965.84;;;26.18;18.56
42691;BME280;28306;55.744;37.578;2023-03-09T06:19:01;97969.88;;;26.21;18.57
42691;BME280;28306;55.744;37.578;2023-03-09T06:21:26;97964.88;;;26.23;18.40
42691;BME280;28306;55.744;37.578;2023-03-09T06:23:53;97967.31;;;26.24;18.72
42691;BME280;28306;55.744;37.578;2023-03-09T06:26:19;97972.44;;;26.26;18.72
42691;BME280;28306;55.744;37.578;2023-03-09T06:28:51;97984.97;;;26.27;18.53
42691;BME280;28306;55.744;37.578;2023-03-09T06:31:17;97981.41;;;26.26;18.51
42691;BME280;28306;55.744;37.578;2023-03-09T06:33:47;97978.38;;;26.28;18.22
42691;BME280;28306;55.744;37.578;2023-03-09T06:36:16;97983.03;;;26.28;18.31
42691;BME280;28306;55.744;37.578;2023-03-09T06:38:43;97981.09;;;26.28;18.55
42691;BME280;28306;55.744;37.578;2023-03-09T06:41:09;97989.78;;;26.30;18.46
42691;BME280;28306;55.744;37.578;2023-03-09T06:43:35;97992.19;;;26.32;18.39
42691;BME280;28306;55.744;37.578;2023-03-09T06:46:02;97991.06;;;26.33;18.58
42691;BME280;28306;55.744;37.578;2023-03-09T06:48:29;98001.16;;;26.32;18.50
42691;BME280;28306;55.744;37.578;2023-03-09T06:50:54;98005.50;;;26.33;18.45
42691;BME280;28306;55.744;37.578;2023-03-09T06:53:20;98004.69;;;26.33;18.18
42691;BME280;28306;55.744;37.578;2023-03-09T06:55:51;97987.22;;;26.34;18.43
42691;BME280;28306;55.744;37.578;2023-03-09T06:58:17;98003.28;;;26.35;18.20
42691;BME280;28306;55.744;37.578;2023-03-09T07:00:44;98013.53;;;26.38;18.19
42691;BME280;28306;55.744;37.578;2023-03-09T07:03:13;98016.75;;;26.40;18.28
42691;BME280;28306;55.744;37.578;2023-03-09T07:05:39;98017.53;;;26.41;18.18
42691;BME280;28306;55.744;37.578;2023-03-09T07:08:05;98028.13;;;26.42;18.36
42691;BME280;28306;55.744;37.578;2023-03-09T07:10:30;98026.25;;;26.43;18.34
42691;BME280;28306;55.744;37.578;2023-03-09T07:12:56;98026.25;;;26.43;18.18
42691;BME280;28306;55.744;37.578;2023-03-09T07:15:22;98019.66;;;26.44;18.28
42691;BME280;28306;55.744;37.578;2023-03-09T07:17:47;98027.50;;;26.46;18.33
42691;BME280;28306;55.744;37.578;2023-03-09T07:20:13;98026.41;;;26.47;18.27
42691;BME280;28306;55.744;37.578;2023-03-09T07:22:38;98029.91;;;26.47;18.21
42691;BME280;28306;55.744;37.578;2023-03-09T07:25:04;98035.38;;;26.47;18.44
42691;BME280;28306;55.744;37.578;2023-03-09T07:27:30;98031.22;;;26.50;18.24
42691;BME280;28306;55.744;37.578;2023-03-09T07:29:56;98034.13;;;26.53;18.32
42691;BME280;28306;55.744;37.578;2023-03-09T07:32:21;98028.66;;;26.53;18.26
42691;BME280;28306;55.744;37.578;2023-03-09T07:34:47;98033.00;;;26.54;18.28
42691;BME280;28306;55.744;37.578;2023-03-09T07:37:12;98034.94;;;26.54;18.15
42691;BME280;28306;55.744;37.578;2023-03-09T07:39:38;98039.88;;;26.52;18.25
42691;BME280;28306;55.744;37.578;2023-03-09T07:42:03;98033.31;;;26.53;18.23
42691;BME280;28306;55.744;37.578;2023-03-09T07:44:44;98034.94;;;26.54;18.32
42691;BME280;28306;55.744;37.578;2023-03-09T07:47:10;98037.34;;;26.55;18.09
42691;BME280;28306;55.744;37.578;2023-03-09T07:49:35;98032.69;;;26.56;18.28
42691;BME280;28306;55.744;37.578;2023-03-09T07:52:01;98033.50;;;26.56;18.28
42691;BME280;28306;55.744;37.578;2023-03-09T07:54:27;98035.41;;;26.56;18.03
42691;BME280;28306;55.744;37.578;2023-03-09T07:56:53;98033.50;;;26.56;18.32
42691;BME280;28306;55.744;37.578;2023-03-09T07:59:19;98036.22;;;26.56;18.38
42691;BME280;28306;55.744;37.578;2023-03-09T08:01:45;98031.59;;;26.57;18.47
42691;BME280;28306;55.744;37.578;2023-03-09T08:04:11;98044.09;;;26.58;17.99
42691;BME280;28306;55.744;37.578;2023-03-09T08:06:38;98045.22;;;26.57;18.22
42691;BME280;28306;55.744;37.578;2023-03-09T08:09:05;98045.69;;;26.59;18.04
42691;BME280;28306;55.744;37.578;2023-03-09T08:11:31;98045.69;;;26.59;18.07
42691;BME280;28306;55.744;37.578;2023-03-09T08:13:58;98043.78;;;26.59;18.11
42691;BME280;28306;55.744;37.578;2023-03-09T08:16:23;98045.69;;;26.59;18.01
42691;BME280;28306;55.744;37.578;2023-03-09T08:18:49;98046.19;;;26.61;18.18
42691;BME280;28306;55.744;37.578;2023-03-09T08:21:15;98045.06;;;26.62;18.21
42691;BME280;28306;55.744;37.578;2023-03-09T08:23:40;98042.03;;;26.64;18.21
42691;BME280;28306;55.744;37.578;2023-03-09T08:26:07;98044.47;;;26.65;18.08
42691;BME280;28306;55.744;37.578;2023-03-09T08:28:33;98042.81;;;26.64;18.11
42691;BME280;28306;55.744;37.578;2023-03-09T08:30:58;98039.31;;;26.64;18.13
42691;BME280;28306;55.744;37.578;2023-03-09T08:33:24;98039.81;;;26.66;18.08
42691;BME280;28306;55.744;37.578;2023-03-09T08:35:49;98037.09;;;26.66;18.10
42691;BME280;28306;55.744;37.578;2023-03-09T08:38:15;98036.75;;;26.67;17.83
42691;BME280;28306;55.744;37.578;2023-03-09T08:40:40;98036.75;;;26.67;17.74
42691;BME280;28306;55.744;37.578;2023-03-09T08:43:06;98033.25;;;26.67;17.40
42691;BME280;28306;55.744;37.578;2023-03-09T08:45:32;98038.69;;;26.67;17.39
42691;BME280;28306;55.744;37.578;2023-03-09T08:47:57;98041.13;;;26.68;17.27
42691;BME280;28306;55.744;37.578;2023-03-09T08:50:23;98039.19;;;26.69;17.09
42691;BME280;28306;55.744;37.578;2023-03-09T08:52:48;98032.94;;;26.68;16.89
42691;BME280;28306;55.744;37.578;2023-03-09T08:55:14;98028.59;;;26.67;16.50
42691;BME280;28306;55.744;37.578;2023-03-09T08:57:40;98038.69;;;26.67;16.25
42691;BME280;28306;55.744;37.578;2023-03-09T09:00:06;98033.25;;;26.67;16.38
42691;BME280;28306;55.744;37.578;2023-03-09T09:02:34;98024.25;;;26.66;16.25
42691;BME280;28306;55.744;37.578;2023-03-09T09:04:59;98028.09;;;26.65;16.16
42691;BME280;28306;55.744;37.578;2023-03-09T09:07:25;98026.44;;;26.64;16.42
42691;BME280;28306;55.744;37.578;2023-03-09T09:09:50;98032.44;;;26.66;15.99
42691;BME280;28306;55.744;37.578;2023-03-09T09:12:16;98026.66;;;26.68;16.29
42691;BME280;28306;55.744;37.578;2023-03-09T09:14:41;98024.75;;;26.68;16.09
42691;BME280;28306;55.744;37.578;2023-03-09T09:17:08;98022.81;;;26.69;15.91
42691;BME280;28306;55.744;37.578;2023-03-09T09:19:34;98030.19;;;26.68;15.91
42691;BME280;28306;55.744;37.578;2023-03-09T09:22:00;98022.81;;;26.69;15.92
42691;BME280;28306;55.744;37.578;2023-03-09T09:24:26;98027.47;;;26.68;15.49
42691;BME280;28306;55.744;37.578;2023-03-09T09:26:55;98027.47;;;26.68;15.46
42691;BME280;28306;55.744;37.578;2023-03-09T09:29:20;98028.09;;;26.65;15.33
42691;BME280;28306;55.744;37.578;2023-03-09T09:31:47;98030.00;;;26.65;15.33
42691;BME280;28306;55.744;37.578;2023-03-09T09:34:13;98025.66;;;26.64;15.47
42691;BME280;28306;55.744;37.578;2023-03-09T09:36:41;98019.41;;;26.63;15.69
42691;BME280;28306;55.744;37.578;2023-03-09T09:39:07;98026.78;;;26.62;15.64
42691;BME280;28306;55.744;37.578;2023-03-09T09:41:42;98024.34;;;26.61;15.70
42691;BME280;28306;55.744;37.578;2023-03-09T09:44:15;98018.91;;;26.61;15.35
42691;BME280;28306;55.744;37.578;2023-03-09T09:46:42;98019.22;;;26.59;15.27
42691;BME280;28306;55.744;37.578;2023-03-09T09:49:14;98022.78;;;26.60;15.25
42691;BME280;28306;55.744;37.578;2023-03-09T09:51:46;98021.94;;;26.59;15.28
42691;BME280;28306;55.744;37.578;2023-03-09T09:54:17;98024.19;;;26.57;15.12
42691;BME280;28306;55.744;37.578;2023-03-09T09:56:49;98012.81;;;26.55;15.07
42691;BME280;28306;55.744;37.578;2023-03-09T09:59:19;98014.72;;;26.55;15.02
42691;BME280;28306;55.744;37.578;2023-03-09T10:01:52;98012.31;;;26.53;14.75
42691;BME280;28306;55.744;37.578;2023-03-09T10:04:32;98024.03;;;26.54;14.77
42691;BME280;28306;55.744;37.578;2023-03-09T10:07:00;98018.06;;;26.52;15.01
42691;BME280;28306;55.744;37.578;2023-03-09T10:09:29;98016.47;;;26.51;14.92
42691;BME280;28306;55.744;37.578;2023-03-09T10:12:05;98028.19;;;26.51;14.90
42691;BME280;28306;55.744;37.578;2023-03-09T10:14:32;98020.31;;;26.50;15.01
42691;BME280;28306;55.744;37.578;2023-03-09T10:19:28;98013.56;;;26.47;14.78
42691;BME280;28306;55.744;37.578;2023-03-09T10:21:56;98012.75;;;26.47;14.79
42691;BME280;28306;55.744;37.578;2023-03-09T10:24:24;98016.28;;;26.47;14.66
42691;BME280;28306;55.744;37.578;2023-03-09T10:29:26;98012.44;;;26.48;14.77
42691;BME280;28306;55.744;37.578;2023-03-09T10:31:55;97991.72;;;26.38;14.60
42691;BME280;28306;55.744;37.578;2023-03-09T10:34:24;98008.41;;;26.46;14.80
42691;BME280;28306;55.744;37.578;2023-03-09T10:36:55;98008.72;;;26.44;14.45
42691;BME280;28306;55.744;37.578;2023-03-09T10:39:23;98009.56;;;26.44;14.45
42691;BME280;28306;55.744;37.578;2023-03-09T10:41:50;98006.00;;;26.44;14.78
42691;BME280;28306;55.744;37.578;2023-03-09T10:44:16;98005.53;;;26.42;14.76
42691;BME280;28306;55.744;37.578;2023-03-09T10:46:53;98007.47;;;26.41;14.86
42691;BME280;28306;55.744;37.578;2023-03-09T10:49:19;98007.47;;;26.41;14.71
42691;BME280;28306;55.744;37.578;2023-03-09T10:51:53;98004.22;;;26.39;14.86
42691;BME280;28306;55.744;37.578;2023-03-09T10:54:26;97997.97;;;26.39;14.80
42691;BME280;28306;55.744;37.578;2023-03-09T10:56:54;98010.00;;;26.38;14.70
42691;BME280;28306;55.744;37.578;2023-03-09T10:59:20;97999.41;;;26.36;14.75
42691;BME280;28306;55.744;37.578;2023-03-09T11:01:47;97977.72;;;26.22;15.13
42691;BME280;28306;55.744;37.578;2023-03-09T11:06:51;98000.06;;;26.33;15.17
42691;BME280;28306;55.744;37.578;2023-03-09T11:09:31;97995.72;;;26.32;15.26
42691;BME280;28306;55.744;37.578;2023-03-09T11:14:32;97992.19;;;26.32;14.98
42691;BME280;28306;55.744;37.578;2023-03-09T11:17:08;98001.50;;;26.31;15.27
42691;BME280;28306;55.744;37.578;2023-03-09T11:19:49;97986.75;;;26.32;15.26
42691;BME280;28306;55.744;37.578;2023-03-09T11:22:14;97993.00;;;26.32;15.37
42691;BME280;28306;55.744;37.578;2023-03-09T11:24:42;97997.66;;;26.32;15.50
42691;BME280;28306;55.744;37.578;2023-03-09T11:32:12;97990.25;;;26.32;15.86
42691;BME280;28306;55.744;37.578;2023-03-09T11:34:39;97990.25;;;26.32;15.72
42691;BME280;28306;55.744;37.578;2023-03-09T11:39:50;97985.91;;;26.31;15.77
42691;BME280;28306;55.744;37.578;2023-03-09T11:42:17;97989.78;;;26.30;15.89
42691;BME280;28306;55.744;37.578;2023-03-09T11:44:45;97989.78;;;26.30;15.96
42691;BME280;28306;55.744;37.578;2023-03-09T11:50:11;97985.75;;;26.28;16.10
42691;BME280;28306;55.744;37.578;2023-03-09T11:52:39;97985.44;;;26.29;16.30
42691;BME280;28306;55.744;37.578;2023-03-09T11:55:11;97985.44;;;26.29;16.38
42691;BME280;28306;55.744;37.578;2023-03-09T11:57:38;97980.00;;;26.29;16.41
42691;BME280;28306;55.744;37.578;2023-03-09T12:00:07;97978.38;;;26.28;16.74
42691;BME280;28306;55.744;37.578;2023-03-09T12:02:48;97974.53;;;26.29;16.41
42691;BME280;28306;55.744;37.578;2023-03-09T12:05:19;97981.91;;;26.29;16.68
42691;BME280;28306;55.744;37.578;2023-03-09T12:10:37;97988.16;;;26.29;16.61
42691;BME280;28306;55.744;37.578;2023-03-09T12:13:17;97982.72;;;26.29;16.57
42691;BME280;28306;55.744;37.578;2023-03-09T12:16:00;97973.75;;;26.29;16.76
42691;BME280;28306;55.744;37.578;2023-03-09T12:18:37;97988.16;;;26.29;16.68
42691;BME280;28306;55.744;37.578;2023-03-09T12:21:07;97981.91;;;26.29;16.58
42691;BME280;28306;55.744;37.578;2023-03-09T12:26:00;97988.47;;;26.28;16.67
42691;BME280;28306;55.744;37.578;2023-03-09T12:28:26;97984.13;;;26.26;16.79
42691;BME280;28306;55.744;37.578;2023-03-09T12:30:54;97974.06;;;26.27;16.92
42691;BME280;28306;55.744;37.578;2023-03-09T12:36:17;97975.16;;;26.26;16.78
42691;BME280;28306;55.744;37.578;2023-03-09T12:38:45;97969.22;;;26.24;16.78
42691;BME280;28306;55.744;37.578;2023-03-09T12:41:24;97971.97;;;26.24;16.90
42691;BME280;28306;55.744;37.578;2023-03-09T12:43:49;97973.88;;;26.23;16.70
42691;BME280;28306;55.744;37.578;2023-03-09T12:49:13;97973.38;;;26.21;16.75
42691;BME280;28306;55.744;37.578;2023-03-09T12:51:40;97974.19;;;26.22;16.63
42691;BME280;28306;55.744;37.578;2023-03-09T12:54:20;97973.88;;;26.23;16.90
42691;BME280;28306;55.744;37.578;2023-03-09T12:56:47;97973.88;;;26.23;16.76
42691;BME280;28306;55.744;37.578;2023-03-09T12:59:13;97985.09;;;26.22;16.99
42691;BME280;28306;55.744;37.578;2023-03-09T13:01:41;97975.78;;;26.23;16.65
42691;BME280;28306;55.744;37.578;2023-03-09T13:04:19;97975.00;;;26.22;16.75
42691;BME280;28306;55.744;37.578;2023-03-09T13:09:21;97971.13;;;26.23;16.71
42691;BME280;28306;55.744;37.578;2023-03-09T13:11:58;97960.53;;;26.22;16.82
42691;BME280;28306;55.744;37.578;2023-03-09T13:21:45;97964.09;;;26.22;16.88
42691;BME280;28306;55.744;37.578;2023-03-09T13:29:31;97951.75;;;26.25;16.79
42691;BME280;28306;55.744;37.578;2023-03-09T13:31:58;97949.31;;;26.23;17.09
42691;BME280;28306;55.744;37.578;2023-03-09T13:34:27;97948.22;;;26.24;16.73
42691;BME280;28306;55.744;37.578;2023-03-09T13:36:54;97940.84;;;26.25;17.04
42691;BME280;28306;55.744;37.578;2023-03-09T13:39:23;97943.88;;;26.23;16.80
42691;BME280;28306;55.744;37.578;2023-03-09T13:41:50;97940.03;;;26.24;17.03
42691;BME280;28306;55.744;37.578;2023-03-09T13:44:17;97936.84;;;26.22;16.79
42691;BME280;28306;55.744;37.578;2023-03-09T13:46:47;97937.63;;;26.23;16.90
42691;BME280;28306;55.744;37.578;2023-03-09T13:49:32;97935.38;;;26.25;16.85
42691;BME280;28306;55.744;37.578;2023-03-09T13:52:03;97932.66;;;26.25;16.92